The Terminator
24 Feb 2019

     
Click on your name for more detailed race data

Page 1 of 8 (380 items)
PosBib NoNameGun TimeChip TimeCategoryCat PosGenderGen PosClubPace
1181Stuart HOLLOWAY1:17:08.21:17:07.7Msen1Male1CITY OF SALISBURY AC & RC 9.3 m/hr
2289Stuart PADGET1:21:46.41:21:45.0MVet401Male2CHIPPENHAM HARRIERS 8.8 m/hr
3275Paul MURRIN1:23:31.31:23:31.2MVet402Male3CHEPSTOW HARRIERS 8.6 m/hr
4368John STODDART1:24:17.81:24:17.7Msen2Male4 8.5 m/hr
5382Stuart TEMPLE1:24:27.11:24:22.7Msen3Male5SLINN ALLSTARS 8.5 m/hr
6415Donny WALKER1:25:39.71:25:33.7MVet403Male6 8.4 m/hr
712Barry AWAN1:25:43.11:25:42.0MVet404Male7TEAM BATH ATHLETIC CLUB 8.4 m/hr
8434Corin WILTSHIRE1:26:09.71:26:08.6MVet501Male8SWINDON SHIN SPLINTS 8.4 m/hr
915Edward BAILEY1:26:32.31:26:31.0Msen4Male9CHIPPENHAM HARRIERS 8.3 m/hr
10203Elliott JONES1:26:51.71:26:50.8Msen5Male10DEVIZES RUNNING CLUB 8.3 m/hr
11444Max HARRISON-TOSATTO1:27:22.51:27:20.0Msen6Male11SWINDON SHIN SPLINTS 8.2 m/hr
12223Guy LANDON1:28:11.51:28:10.2MVet405Male12 8.2 m/hr
1368Jordan CARTER1:28:31.91:28:31.2Msen7Male13 8.1 m/hr
14192Reece INGRAM1:28:42.01:28:41.5MVet406Male14CITY OF SALISBURY AC & RC 8.1 m/hr
15395Gary TISSINGTON1:29:18.81:29:18.1Msen8Male15POOLE AC 8.1 m/hr
16190Ade HURREN1:29:43.01:29:37.3MVet502Male16CORSHAM RUNNING CLUB 8.0 m/hr
17160Alex HARRIS1:29:53.01:29:52.3Msen9Male17DEVIZES RUNNING CLUB 8.0 m/hr
18236Trevor MACARTHUR1:29:55.81:29:52.7MVet407Male18ROYAL NAVY ATHLETICS CLUB 8.0 m/hr
19255Allan MCKINNON1:30:10.61:30:10.2Msen10Male19MUDDY RUNNERS 8.0 m/hr
20310Maurice PRICE1:30:29.81:30:28.5MVet408Male20SWINDON SHIN SPLINTS 8.0 m/hr
2145Joe BOWERBANK1:30:47.11:30:45.5Msen11Male21DEVIZES RUNNING CLUB 7.9 m/hr
22417John WALLACE1:31:53.71:31:47.0MVet503Male22EASTLEIGH RC 7.8 m/hr
23313Robert PRITCHARD1:32:07.81:32:07.1Msen12Male23CHEPSTOW HARRIERS 7.8 m/hr
24442Gary O'BRIEN1:32:10.51:32:09.8MVet409Male24SWINDON SHIN SPLINTS 7.8 m/hr
2523Stuart BAXTER1:32:14.11:32:11.2Msen13Male25ARMY HQ 7.8 m/hr
26163Simon HARRIS1:32:15.31:32:13.9Msen14Male26WHITE HORSE HARRIERS 7.8 m/hr
27158Rebecca HANNAH1:32:34.11:32:30.9FSen1Female1 7.8 m/hr
28419Matthew WALTON1:32:52.81:32:50.1Msen15Male27RUN WALLINGFORD 7.8 m/hr
29369Michael STONE1:33:27.31:33:24.2Msen16Male28ANDOVER AC 7.7 m/hr
30443Omer HOMER1:33:42.41:33:42.4Msen17Male29SWINDON SHIN SPLINTS 7.7 m/hr
31405Melvin VAYLE1:34:02.61:34:01.1MVet4010Male30 7.7 m/hr
32413Simon WAITE1:34:04.91:34:03.5Msen18Male31 7.7 m/hr
33189Dickie HUDD1:34:08.31:34:07.7MVet4011Male32CHEPSTOW HARRIERS 7.6 m/hr
34251Jason MAWLAM1:34:46.51:34:40.8Msen19Male33KISS GYM 7.6 m/hr
35390Adrian THRUSH1:34:51.21:34:49.4MVet504Male34 7.6 m/hr
36401Jeffrey TRYBUS1:34:58.71:34:56.0Msen20Male35CHERWELL RUNNERS 7.6 m/hr
37428Jessica WHITE1:35:18.31:35:13.1FVet351Female2MARLBOROUGH RUNNING CLUB 7.6 m/hr
38241Andy MAIDMENT1:35:28.31:35:26.1Msen21Male36DEVIZES RUNNING CLUB 7.5 m/hr
39100Paul DODD1:36:01.51:36:01.2MVet601Male37CHEPSTOW HARRIERS 7.5 m/hr
40252Francis MAY1:36:06.11:36:01.8Msen22Male38SLINN ALLSTARS 7.5 m/hr
42295Simon PEARSON1:36:08.41:36:04.1Msen23Male39GREAT CHEVERELL CIRCUITS 7.5 m/hr
41318Victoria RATCLIFFE1:36:07.51:36:04.5FVet352Female3SOMER AC 7.5 m/hr
4363Daniel BURR1:36:11.11:36:09.0MVet4012Male40 7.5 m/hr
45123Chris FOGARTY1:36:24.71:36:14.4MVet4014Male42 7.5 m/hr
44265Chris MORGAN1:36:21.81:36:19.5MVet4013Male41SWINDON SHIN SPLINTS 7.5 m/hr
46365Ashley STEVENS1:36:43.71:36:42.2Msen24Male43DEVIZES RUNNING CLUB 7.4 m/hr
47175Laurence HEWETSON1:36:47.91:36:46.4MVet4015Male44BAD TRI 7.4 m/hr
48412Matthew WAITE1:36:49.81:36:48.9MVet4016Male45CALNE RUNNING CLUB 7.4 m/hr
49168Timothy HAUGHTON1:37:02.51:36:59.1Msen25Male46FULHAM RUNNING CLUB 7.4 m/hr
50167Adrian HAUGHTON1:37:05.01:37:01.4MVet505Male47WINCHESTER & DISTRICT AC 7.4 m/hr
Page 1 of 8 (380 items)
   

fb